sensor_id;sensor_type;location;lat;lon;timestamp;P1;durP1;ratioP1;P2;durP2;ratioP2
66485;SDS011;53303;47.476;8.084;2023-02-28T00:00:33;6.43;;;2.78;;
66485;SDS011;53303;47.476;8.084;2023-02-28T00:02:59;6.00;;;2.22;;
66485;SDS011;53303;47.476;8.084;2023-02-28T00:05:27;8.48;;;2.50;;
66485;SDS011;53303;47.476;8.084;2023-02-28T00:07:53;9.30;;;2.70;;
66485;SDS011;53303;47.476;8.084;2023-02-28T00:10:20;7.53;;;2.47;;
66485;SDS011;53303;47.476;8.084;2023-02-28T00:12:52;7.63;;;2.80;;
66485;SDS011;53303;47.476;8.084;2023-02-28T00:15:21;5.85;;;2.38;;
66485;SDS011;53303;47.476;8.084;2023-02-28T00:17:48;10.05;;;2.75;;
66485;SDS011;53303;47.476;8.084;2023-02-28T00:20:14;7.65;;;2.40;;
66485;SDS011;53303;47.476;8.084;2023-02-28T00:22:42;8.88;;;2.42;;
66485;SDS011;53303;47.476;8.084;2023-02-28T00:25:11;8.10;;;2.58;;
66485;SDS011;53303;47.476;8.084;2023-02-28T00:27:38;9.35;;;2.60;;
66485;SDS011;53303;47.476;8.084;2023-02-28T00:30:05;4.70;;;2.22;;
66485;SDS011;53303;47.476;8.084;2023-02-28T00:32:33;5.90;;;2.47;;
66485;SDS011;53303;47.476;8.084;2023-02-28T00:34:59;7.63;;;2.80;;
66485;SDS011;53303;47.476;8.084;2023-02-28T00:37:25;5.45;;;2.38;;
66485;SDS011;53303;47.476;8.084;2023-02-28T00:39:50;6.95;;;2.40;;
66485;SDS011;53303;47.476;8.084;2023-02-28T00:42:16;9.43;;;2.75;;
66485;SDS011;53303;47.476;8.084;2023-02-28T00:44:41;8.25;;;2.70;;
66485;SDS011;53303;47.476;8.084;2023-02-28T00:47:06;7.30;;;2.80;;
66485;SDS011;53303;47.476;8.084;2023-02-28T00:49:32;6.55;;;2.50;;
66485;SDS011;53303;47.476;8.084;2023-02-28T00:52:00;8.20;;;2.80;;
66485;SDS011;53303;47.476;8.084;2023-02-28T00:54:26;5.47;;;2.72;;
66485;SDS011;53303;47.476;8.084;2023-02-28T00:56:51;6.88;;;2.33;;
66485;SDS011;53303;47.476;8.084;2023-02-28T00:59:19;9.02;;;2.80;;
66485;SDS011;53303;47.476;8.084;2023-02-28T01:01:46;6.63;;;2.60;;
66485;SDS011;53303;47.476;8.084;2023-02-28T01:04:15;8.15;;;2.53;;
66485;SDS011;53303;47.476;8.084;2023-02-28T01:06:40;6.07;;;2.83;;
66485;SDS011;53303;47.476;8.084;2023-02-28T01:09:06;6.22;;;2.58;;
66485;SDS011;53303;47.476;8.084;2023-02-28T01:11:38;5.22;;;2.22;;
66485;SDS011;53303;47.476;8.084;2023-02-28T01:14:05;7.05;;;2.90;;
66485;SDS011;53303;47.476;8.084;2023-02-28T01:16:31;6.32;;;2.75;;
66485;SDS011;53303;47.476;8.084;2023-02-28T01:18:56;6.63;;;2.83;;
66485;SDS011;53303;47.476;8.084;2023-02-28T01:21:22;7.70;;;2.78;;
66485;SDS011;53303;47.476;8.084;2023-02-28T01:23:52;6.35;;;2.53;;
66485;SDS011;53303;47.476;8.084;2023-02-28T01:26:23;6.43;;;2.55;;
66485;SDS011;53303;47.476;8.084;2023-02-28T01:28:51;9.40;;;2.55;;
66485;SDS011;53303;47.476;8.084;2023-02-28T01:31:18;6.75;;;2.60;;
66485;SDS011;53303;47.476;8.084;2023-02-28T01:33:44;5.72;;;2.28;;
66485;SDS011;53303;47.476;8.084;2023-02-28T01:36:12;7.25;;;2.70;;
66485;SDS011;53303;47.476;8.084;2023-02-28T01:38:39;6.05;;;2.70;;
66485;SDS011;53303;47.476;8.084;2023-02-28T01:41:05;6.97;;;2.33;;
66485;SDS011;53303;47.476;8.084;2023-02-28T01:43:51;5.47;;;2.45;;
66485;SDS011;53303;47.476;8.084;2023-02-28T01:46:19;7.88;;;2.67;;
66485;SDS011;53303;47.476;8.084;2023-02-28T01:48:46;7.40;;;2.70;;
66485;SDS011;53303;47.476;8.084;2023-02-28T01:51:39;7.05;;;2.90;;
66485;SDS011;53303;47.476;8.084;2023-02-28T01:54:25;7.65;;;2.58;;
66485;SDS011;53303;47.476;8.084;2023-02-28T01:57:04;7.47;;;2.67;;
66485;SDS011;53303;47.476;8.084;2023-02-28T02:02:03;7.05;;;2.83;;
66485;SDS011;53303;47.476;8.084;2023-02-28T02:04:32;9.85;;;2.70;;
66485;SDS011;53303;47.476;8.084;2023-02-28T02:07:04;8.82;;;2.70;;
66485;SDS011;53303;47.476;8.084;2023-02-28T02:09:30;6.57;;;2.70;;
66485;SDS011;53303;47.476;8.084;2023-02-28T02:11:55;7.25;;;2.60;;
66485;SDS011;53303;47.476;8.084;2023-02-28T02:14:32;6.40;;;2.80;;
66485;SDS011;53303;47.476;8.084;2023-02-28T02:22:36;6.32;;;2.75;;
66485;SDS011;53303;47.476;8.084;2023-02-28T02:28:05;7.25;;;2.70;;
66485;SDS011;53303;47.476;8.084;2023-02-28T02:33:46;7.22;;;2.50;;
66485;SDS011;53303;47.476;8.084;2023-02-28T02:36:35;7.65;;;2.63;;
66485;SDS011;53303;47.476;8.084;2023-02-28T02:39:14;7.45;;;3.10;;
66485;SDS011;53303;47.476;8.084;2023-02-28T02:42:08;8.88;;;2.67;;
66485;SDS011;53303;47.476;8.084;2023-02-28T02:47:17;6.05;;;2.50;;
66485;SDS011;53303;47.476;8.084;2023-02-28T02:49:55;6.03;;;2.58;;
66485;SDS011;53303;47.476;8.084;2023-02-28T02:52:25;6.55;;;2.55;;
66485;SDS011;53303;47.476;8.084;2023-02-28T02:54:59;5.68;;;2.47;;
66485;SDS011;53303;47.476;8.084;2023-02-28T02:57:29;5.95;;;2.33;;
66485;SDS011;53303;47.476;8.084;2023-02-28T03:00:03;6.18;;;2.47;;
66485;SDS011;53303;47.476;8.084;2023-02-28T03:02:34;6.55;;;2.80;;
66485;SDS011;53303;47.476;8.084;2023-02-28T03:05:05;5.20;;;2.70;;
66485;SDS011;53303;47.476;8.084;2023-02-28T03:07:37;6.70;;;2.60;;
66485;SDS011;53303;47.476;8.084;2023-02-28T03:10:02;7.03;;;2.80;;
66485;SDS011;53303;47.476;8.084;2023-02-28T03:12:50;6.10;;;2.78;;
66485;SDS011;53303;47.476;8.084;2023-02-28T03:15:25;6.93;;;2.60;;
66485;SDS011;53303;47.476;8.084;2023-02-28T03:18:08;6.15;;;2.80;;
66485;SDS011;53303;47.476;8.084;2023-02-28T03:23:21;6.25;;;2.35;;
66485;SDS011;53303;47.476;8.084;2023-02-28T03:25:56;5.75;;;2.55;;
66485;SDS011;53303;47.476;8.084;2023-02-28T03:31:28;6.00;;;2.97;;
66485;SDS011;53303;47.476;8.084;2023-02-28T03:34:05;7.20;;;2.75;;
66485;SDS011;53303;47.476;8.084;2023-02-28T03:36:41;6.15;;;2.92;;
66485;SDS011;53303;47.476;8.084;2023-02-28T03:39:15;6.40;;;2.92;;
66485;SDS011;53303;47.476;8.084;2023-02-28T03:41:50;5.80;;;2.65;;
66485;SDS011;53303;47.476;8.084;2023-02-28T03:45:24;5.88;;;2.75;;
66485;SDS011;53303;47.476;8.084;2023-02-28T03:47:41;7.00;;;2.60;;
66485;SDS011;53303;47.476;8.084;2023-02-28T03:50:54;5.53;;;2.45;;
66485;SDS011;53303;47.476;8.084;2023-02-28T03:55:32;6.88;;;2.75;;
66485;SDS011;53303;47.476;8.084;2023-02-28T04:00:42;7.28;;;2.60;;
66485;SDS011;53303;47.476;8.084;2023-02-28T04:03:13;5.70;;;2.72;;
66485;SDS011;53303;47.476;8.084;2023-02-28T04:05:46;6.65;;;2.92;;
66485;SDS011;53303;47.476;8.084;2023-02-28T04:08:19;5.80;;;2.60;;
66485;SDS011;53303;47.476;8.084;2023-02-28T04:10:48;5.82;;;2.85;;
66485;SDS011;53303;47.476;8.084;2023-02-28T04:13:19;7.15;;;2.60;;
66485;SDS011;53303;47.476;8.084;2023-02-28T04:15:47;7.05;;;2.78;;
66485;SDS011;53303;47.476;8.084;2023-02-28T04:18:12;8.38;;;2.65;;
66485;SDS011;53303;47.476;8.084;2023-02-28T04:20:37;5.95;;;2.63;;
66485;SDS011;53303;47.476;8.084;2023-02-28T04:23:05;6.07;;;2.78;;
66485;SDS011;53303;47.476;8.084;2023-02-28T04:25:30;6.18;;;2.42;;
66485;SDS011;53303;47.476;8.084;2023-02-28T04:27:56;6.18;;;2.65;;
66485;SDS011;53303;47.476;8.084;2023-02-28T04:30:21;7.90;;;2.80;;
66485;SDS011;53303;47.476;8.084;2023-02-28T04:32:49;5.35;;;2.63;;
66485;SDS011;53303;47.476;8.084;2023-02-28T04:35:17;6.65;;;2.92;;
66485;SDS011;53303;47.476;8.084;2023-02-28T04:37:42;5.72;;;2.60;;
66485;SDS011;53303;47.476;8.084;2023-02-28T04:40:08;5.78;;;2.78;;
66485;SDS011;53303;47.476;8.084;2023-02-28T04:42:34;7.70;;;2.65;;
66485;SDS011;53303;47.476;8.084;2023-02-28T04:45:04;6.47;;;2.92;;
66485;SDS011;53303;47.476;8.084;2023-02-28T04:47:30;7.18;;;2.53;;
66485;SDS011;53303;47.476;8.084;2023-02-28T04:49:55;5.85;;;2.45;;
66485;SDS011;53303;47.476;8.084;2023-02-28T04:52:21;5.35;;;2.63;;
66485;SDS011;53303;47.476;8.084;2023-02-28T04:54:46;6.03;;;2.83;;
66485;SDS011;53303;47.476;8.084;2023-02-28T04:57:12;4.90;;;2.30;;
66485;SDS011;53303;47.476;8.084;2023-02-28T04:59:38;6.18;;;2.85;;
66485;SDS011;53303;47.476;8.084;2023-02-28T05:02:05;9.15;;;2.67;;
66485;SDS011;53303;47.476;8.084;2023-02-28T05:04:34;6.28;;;2.50;;
66485;SDS011;53303;47.476;8.084;2023-02-28T05:07:03;8.82;;;2.63;;
66485;SDS011;53303;47.476;8.084;2023-02-28T05:09:28;10.63;;;3.03;;
66485;SDS011;53303;47.476;8.084;2023-02-28T05:11:54;9.88;;;3.55;;
66485;SDS011;53303;47.476;8.084;2023-02-28T05:14:20;10.55;;;3.35;;
66485;SDS011;53303;47.476;8.084;2023-02-28T05:16:46;9.35;;;3.10;;
66485;SDS011;53303;47.476;8.084;2023-02-28T05:19:11;8.80;;;3.25;;
66485;SDS011;53303;47.476;8.084;2023-02-28T05:24:07;9.52;;;2.80;;
66485;SDS011;53303;47.476;8.084;2023-02-28T05:26:36;8.77;;;3.10;;
66485;SDS011;53303;47.476;8.084;2023-02-28T05:29:05;7.55;;;2.90;;
66485;SDS011;53303;47.476;8.084;2023-02-28T05:31:31;12.15;;;3.38;;
66485;SDS011;53303;47.476;8.084;2023-02-28T05:33:58;9.98;;;2.88;;
66485;SDS011;53303;47.476;8.084;2023-02-28T05:36:24;9.30;;;3.08;;
66485;SDS011;53303;47.476;8.084;2023-02-28T05:38:50;9.20;;;2.92;;
66485;SDS011;53303;47.476;8.084;2023-02-28T05:41:19;8.43;;;2.88;;
66485;SDS011;53303;47.476;8.084;2023-02-28T05:43:45;9.20;;;2.50;;
66485;SDS011;53303;47.476;8.084;2023-02-28T05:46:11;10.55;;;3.03;;
66485;SDS011;53303;47.476;8.084;2023-02-28T05:48:37;9.23;;;2.97;;
66485;SDS011;53303;47.476;8.084;2023-02-28T05:51:05;8.70;;;2.50;;
66485;SDS011;53303;47.476;8.084;2023-02-28T05:53:31;6.30;;;2.63;;
66485;SDS011;53303;47.476;8.084;2023-02-28T05:55:57;6.78;;;2.55;;
66485;SDS011;53303;47.476;8.084;2023-02-28T05:58:22;9.02;;;2.80;;
66485;SDS011;53303;47.476;8.084;2023-02-28T06:00:50;9.02;;;2.70;;
66485;SDS011;53303;47.476;8.084;2023-02-28T06:03:16;6.57;;;2.58;;
66485;SDS011;53303;47.476;8.084;2023-02-28T06:05:41;8.93;;;2.85;;
66485;SDS011;53303;47.476;8.084;2023-02-28T06:08:07;7.63;;;2.60;;
66485;SDS011;53303;47.476;8.084;2023-02-28T06:10:35;9.43;;;3.00;;
66485;SDS011;53303;47.476;8.084;2023-02-28T06:13:01;7.95;;;2.70;;
66485;SDS011;53303;47.476;8.084;2023-02-28T06:15:30;5.90;;;2.72;;
66485;SDS011;53303;47.476;8.084;2023-02-28T06:17:56;7.55;;;2.78;;
66485;SDS011;53303;47.476;8.084;2023-02-28T06:20:22;8.73;;;2.83;;
66485;SDS011;53303;47.476;8.084;2023-02-28T06:22:48;7.20;;;2.70;;
66485;SDS011;53303;47.476;8.084;2023-02-28T06:25:15;5.97;;;2.53;;
66485;SDS011;53303;47.476;8.084;2023-02-28T06:27:40;6.47;;;2.60;;
66485;SDS011;53303;47.476;8.084;2023-02-28T06:30:06;7.65;;;2.47;;
66485;SDS011;53303;47.476;8.084;2023-02-28T06:32:32;7.18;;;2.45;;
66485;SDS011;53303;47.476;8.084;2023-02-28T06:34:58;7.32;;;2.70;;
66485;SDS011;53303;47.476;8.084;2023-02-28T06:37:23;7.63;;;2.60;;
66485;SDS011;53303;47.476;8.084;2023-02-28T06:39:51;8.85;;;2.55;;
66485;SDS011;53303;47.476;8.084;2023-02-28T06:42:17;7.60;;;2.50;;
66485;SDS011;53303;47.476;8.084;2023-02-28T06:44:42;9.80;;;2.78;;
66485;SDS011;53303;47.476;8.084;2023-02-28T06:47:08;6.25;;;2.90;;
66485;SDS011;53303;47.476;8.084;2023-02-28T06:49:35;7.85;;;2.40;;
66485;SDS011;53303;47.476;8.084;2023-02-28T06:52:01;7.68;;;2.67;;
66485;SDS011;53303;47.476;8.084;2023-02-28T06:54:27;5.95;;;2.28;;
66485;SDS011;53303;47.476;8.084;2023-02-28T06:56:55;8.32;;;2.83;;
66485;SDS011;53303;47.476;8.084;2023-02-28T06:59:20;6.65;;;2.67;;
66485;SDS011;53303;47.476;8.084;2023-02-28T07:01:45;7.85;;;2.67;;
66485;SDS011;53303;47.476;8.084;2023-02-28T07:04:11;10.25;;;2.90;;
66485;SDS011;53303;47.476;8.084;2023-02-28T07:06:38;9.40;;;3.08;;
66485;SDS011;53303;47.476;8.084;2023-02-28T07:09:03;8.13;;;2.75;;
66485;SDS011;53303;47.476;8.084;2023-02-28T07:11:29;9.85;;;2.42;;
66485;SDS011;53303;47.476;8.084;2023-02-28T07:13:54;8.13;;;2.53;;
66485;SDS011;53303;47.476;8.084;2023-02-28T07:16:21;6.03;;;2.42;;
66485;SDS011;53303;47.476;8.084;2023-02-28T07:18:47;7.60;;;2.95;;
66485;SDS011;53303;47.476;8.084;2023-02-28T07:21:15;9.60;;;3.00;;
66485;SDS011;53303;47.476;8.084;2023-02-28T07:23:41;7.82;;;2.42;;
66485;SDS011;53303;47.476;8.084;2023-02-28T07:26:07;5.20;;;2.60;;
66485;SDS011;53303;47.476;8.084;2023-02-28T07:28:37;6.32;;;2.53;;
66485;SDS011;53303;47.476;8.084;2023-02-28T07:31:06;7.68;;;2.85;;
66485;SDS011;53303;47.476;8.084;2023-02-28T07:33:33;6.30;;;2.80;;
66485;SDS011;53303;47.476;8.084;2023-02-28T07:36:06;6.55;;;2.72;;
66485;SDS011;53303;47.476;8.084;2023-02-28T07:38:38;6.22;;;2.58;;
66485;SDS011;53303;47.476;8.084;2023-02-28T07:41:04;7.28;;;2.80;;
66485;SDS011;53303;47.476;8.084;2023-02-28T07:43:33;6.82;;;2.63;;
66485;SDS011;53303;47.476;8.084;2023-02-28T07:46:05;5.97;;;3.00;;
66485;SDS011;53303;47.476;8.084;2023-02-28T07:48:33;6.28;;;2.65;;
66485;SDS011;53303;47.476;8.084;2023-02-28T07:50:59;5.47;;;2.42;;
66485;SDS011;53303;47.476;8.084;2023-02-28T07:53:27;7.05;;;3.08;;
66485;SDS011;53303;47.476;8.084;2023-02-28T07:55:57;5.22;;;2.75;;
66485;SDS011;53303;47.476;8.084;2023-02-28T07:58:24;5.35;;;2.65;;
66485;SDS011;53303;47.476;8.084;2023-02-28T08:00:50;5.55;;;2.60;;
66485;SDS011;53303;47.476;8.084;2023-02-28T08:03:16;7.30;;;2.70;;
66485;SDS011;53303;47.476;8.084;2023-02-28T08:05:46;5.30;;;2.20;;
66485;SDS011;53303;47.476;8.084;2023-02-28T08:08:12;5.70;;;2.65;;
66485;SDS011;53303;47.476;8.084;2023-02-28T08:10:38;6.90;;;2.60;;
66485;SDS011;53303;47.476;8.084;2023-02-28T08:13:03;6.70;;;2.70;;
66485;SDS011;53303;47.476;8.084;2023-02-28T08:15:31;9.32;;;3.08;;
66485;SDS011;53303;47.476;8.084;2023-02-28T08:17:57;5.90;;;2.78;;
66485;SDS011;53303;47.476;8.084;2023-02-28T08:20:23;6.88;;;2.63;;
66485;SDS011;53303;47.476;8.084;2023-02-28T08:22:49;6.95;;;2.90;;
66485;SDS011;53303;47.476;8.084;2023-02-28T08:25:15;6.72;;;2.55;;
66485;SDS011;53303;47.476;8.084;2023-02-28T08:27:43;5.75;;;2.53;;
66485;SDS011;53303;47.476;8.084;2023-02-28T08:30:12;6.38;;;2.70;;
66485;SDS011;53303;47.476;8.084;2023-02-28T08:32:38;5.88;;;2.63;;
66485;SDS011;53303;47.476;8.084;2023-02-28T08:35:07;5.50;;;2.55;;
66485;SDS011;53303;47.476;8.084;2023-02-28T08:37:34;6.35;;;2.47;;
66485;SDS011;53303;47.476;8.084;2023-02-28T08:39:59;5.82;;;2.67;;
66485;SDS011;53303;47.476;8.084;2023-02-28T08:42:25;6.25;;;2.50;;
66485;SDS011;53303;47.476;8.084;2023-02-28T08:44:51;5.93;;;2.58;;
66485;SDS011;53303;47.476;8.084;2023-02-28T08:47:22;5.78;;;2.50;;
66485;SDS011;53303;47.476;8.084;2023-02-28T08:49:47;6.28;;;2.70;;
66485;SDS011;53303;47.476;8.084;2023-02-28T08:52:13;6.05;;;2.70;;
66485;SDS011;53303;47.476;8.084;2023-02-28T08:54:38;7.15;;;2.58;;
66485;SDS011;53303;47.476;8.084;2023-02-28T08:57:04;7.22;;;2.75;;
66485;SDS011;53303;47.476;8.084;2023-02-28T08:59:29;6.00;;;2.75;;
66485;SDS011;53303;47.476;8.084;2023-02-28T09:01:57;5.80;;;2.58;;
66485;SDS011;53303;47.476;8.084;2023-02-28T09:04:22;4.78;;;2.42;;
66485;SDS011;53303;47.476;8.084;2023-02-28T09:06:48;5.43;;;2.63;;
66485;SDS011;53303;47.476;8.084;2023-02-28T09:09:14;5.55;;;2.55;;
66485;SDS011;53303;47.476;8.084;2023-02-28T09:11:42;5.85;;;2.85;;
66485;SDS011;53303;47.476;8.084;2023-02-28T09:14:07;7.22;;;2.65;;
66485;SDS011;53303;47.476;8.084;2023-02-28T09:16:35;6.50;;;3.00;;
66485;SDS011;53303;47.476;8.084;2023-02-28T09:19:00;4.90;;;2.70;;
66485;SDS011;53303;47.476;8.084;2023-02-28T09:21:26;5.65;;;2.40;;
66485;SDS011;53303;47.476;8.084;2023-02-28T09:23:52;6.93;;;2.53;;
66485;SDS011;53303;47.476;8.084;2023-02-28T09:26:24;5.50;;;2.70;;
66485;SDS011;53303;47.476;8.084;2023-02-28T09:28:51;4.50;;;2.45;;
66485;SDS011;53303;47.476;8.084;2023-02-28T09:31:19;6.72;;;2.90;;
66485;SDS011;53303;47.476;8.084;2023-02-28T09:33:49;5.47;;;2.65;;
66485;SDS011;53303;47.476;8.084;2023-02-28T09:36:17;6.38;;;2.50;;
66485;SDS011;53303;47.476;8.084;2023-02-28T09:38:45;5.20;;;2.78;;
66485;SDS011;53303;47.476;8.084;2023-02-28T09:41:15;6.97;;;3.10;;
66485;SDS011;53303;47.476;8.084;2023-02-28T09:43:51;6.15;;;2.80;;
66485;SDS011;53303;47.476;8.084;2023-02-28T09:46:31;5.40;;;2.80;;
66485;SDS011;53303;47.476;8.084;2023-02-28T09:49:02;5.38;;;2.85;;
66485;SDS011;53303;47.476;8.084;2023-02-28T09:51:40;5.15;;;2.70;;
66485;SDS011;53303;47.476;8.084;2023-02-28T09:54:13;6.10;;;2.72;;
66485;SDS011;53303;47.476;8.084;2023-02-28T09:56:47;5.35;;;2.65;;
66485;SDS011;53303;47.476;8.084;2023-02-28T10:10:26;4.80;;;2.45;;
66485;SDS011;53303;47.476;8.084;2023-02-28T10:13:12;5.50;;;2.58;;
66485;SDS011;53303;47.476;8.084;2023-02-28T10:15:41;4.90;;;2.50;;
66485;SDS011;53303;47.476;8.084;2023-02-28T10:18:13;5.60;;;2.72;;
66485;SDS011;53303;47.476;8.084;2023-02-28T10:20:45;6.72;;;2.90;;
66485;SDS011;53303;47.476;8.084;2023-02-28T10:25:42;5.60;;;2.70;;
66485;SDS011;53303;47.476;8.084;2023-02-28T10:28:16;5.53;;;2.60;;
66485;SDS011;53303;47.476;8.084;2023-02-28T10:30:49;5.72;;;2.53;;
66485;SDS011;53303;47.476;8.084;2023-02-28T10:33:27;4.75;;;2.50;;
66485;SDS011;53303;47.476;8.084;2023-02-28T10:35:53;5.13;;;3.00;;
66485;SDS011;53303;47.476;8.084;2023-02-28T10:38:23;4.78;;;2.45;;
66485;SDS011;53303;47.476;8.084;2023-02-28T10:40:50;5.45;;;2.58;;
66485;SDS011;53303;47.476;8.084;2023-02-28T10:45:58;5.78;;;2.72;;
66485;SDS011;53303;47.476;8.084;2023-02-28T10:48:29;5.40;;;2.58;;
66485;SDS011;53303;47.476;8.084;2023-02-28T10:50:57;6.78;;;2.80;;
66485;SDS011;53303;47.476;8.084;2023-02-28T10:56:34;5.13;;;2.78;;
66485;SDS011;53303;47.476;8.084;2023-02-28T11:03:44;5.30;;;3.00;;
66485;SDS011;53303;47.476;8.084;2023-02-28T11:06:17;5.68;;;2.95;;
66485;SDS011;53303;47.476;8.084;2023-02-28T11:08:52;6.38;;;2.70;;
66485;SDS011;53303;47.476;8.084;2023-02-28T11:11:20;5.60;;;2.80;;
66485;SDS011;53303;47.476;8.084;2023-02-28T11:13:48;5.93;;;2.90;;
66485;SDS011;53303;47.476;8.084;2023-02-28T11:16:17;6.65;;;2.78;;
66485;SDS011;53303;47.476;8.084;2023-02-28T11:18:53;6.95;;;2.80;;
66485;SDS011;53303;47.476;8.084;2023-02-28T11:24:18;8.48;;;2.97;;
66485;SDS011;53303;47.476;8.084;2023-02-28T11:26:41;5.20;;;2.88;;
66485;SDS011;53303;47.476;8.084;2023-02-28T11:29:10;8.07;;;2.80;;
66485;SDS011;53303;47.476;8.084;2023-02-28T11:32:01;5.88;;;2.70;;
66485;SDS011;53303;47.476;8.084;2023-02-28T11:34:29;8.90;;;3.33;;
66485;SDS011;53303;47.476;8.084;2023-02-28T11:36:56;7.03;;;2.80;;
66485;SDS011;53303;47.476;8.084;2023-02-28T11:39:24;7.93;;;3.03;;
66485;SDS011;53303;47.476;8.084;2023-02-28T11:47:38;5.28;;;2.72;;
66485;SDS011;53303;47.476;8.084;2023-02-28T11:55:19;6.85;;;2.97;;
66485;SDS011;53303;47.476;8.084;2023-02-28T12:03:35;7.18;;;3.00;;
66485;SDS011;53303;47.476;8.084;2023-02-28T12:08:44;5.72;;;2.80;;
66485;SDS011;53303;47.476;8.084;2023-02-28T12:27:19;5.68;;;2.72;;
66485;SDS011;53303;47.476;8.084;2023-02-28T12:29:56;6.47;;;3.30;;
66485;SDS011;53303;47.476;8.084;2023-02-28T12:32:33;5.97;;;2.92;;
66485;SDS011;53303;47.476;8.084;2023-02-28T12:40:56;6.93;;;2.85;;
66485;SDS011;53303;47.476;8.084;2023-02-28T12:43:19;6.72;;;2.95;;
66485;SDS011;53303;47.476;8.084;2023-02-28T12:48:24;5.13;;;2.72;;
66485;SDS011;53303;47.476;8.084;2023-02-28T12:50:55;6.05;;;2.83;;
66485;SDS011;53303;47.476;8.084;2023-02-28T12:56:00;5.93;;;3.25;;
66485;SDS011;53303;47.476;8.084;2023-02-28T13:09:24;6.03;;;2.85;;
66485;SDS011;53303;47.476;8.084;2023-02-28T13:11:51;6.10;;;2.90;;
66485;SDS011;53303;47.476;8.084;2023-02-28T13:19:27;6.97;;;3.08;;
66485;SDS011;53303;47.476;8.084;2023-02-28T13:21:55;6.55;;;3.13;;
66485;SDS011;53303;47.476;8.084;2023-02-28T13:24:44;5.72;;;3.10;;
66485;SDS011;53303;47.476;8.084;2023-02-28T13:29:44;6.03;;;3.15;;
66485;SDS011;53303;47.476;8.084;2023-02-28T13:35:14;6.72;;;2.92;;
66485;SDS011;53303;47.476;8.084;2023-02-28T13:37:42;6.95;;;3.08;;
66485;SDS011;53303;47.476;8.084;2023-02-28T13:45:19;5.72;;;3.03;;
66485;SDS011;53303;47.476;8.084;2023-02-28T13:48:02;6.13;;;3.17;;
66485;SDS011;53303;47.476;8.084;2023-02-28T14:04:29;5.78;;;2.75;;
66485;SDS011;53303;47.476;8.084;2023-02-28T14:07:03;4.85;;;2.78;;
66485;SDS011;53303;47.476;8.084;2023-02-28T14:09:33;5.68;;;2.92;;
66485;SDS011;53303;47.476;8.084;2023-02-28T14:15:23;5.55;;;3.17;;
66485;SDS011;53303;47.476;8.084;2023-02-28T14:17:53;5.55;;;2.97;;
66485;SDS011;53303;47.476;8.084;2023-02-28T14:20:20;5.88;;;3.20;;
66485;SDS011;53303;47.476;8.084;2023-02-28T14:31:01;5.97;;;2.83;;
66485;SDS011;53303;47.476;8.084;2023-02-28T14:36:10;6.15;;;3.10;;
66485;SDS011;53303;47.476;8.084;2023-02-28T14:38:50;5.10;;;2.83;;
66485;SDS011;53303;47.476;8.084;2023-02-28T14:41:26;5.85;;;3.08;;
66485;SDS011;53303;47.476;8.084;2023-02-28T14:44:13;5.22;;;3.17;;
66485;SDS011;53303;47.476;8.084;2023-02-28T14:46:41;6.40;;;3.35;;
66485;SDS011;53303;47.476;8.084;2023-02-28T14:49:21;6.28;;;3.40;;
66485;SDS011;53303;47.476;8.084;2023-02-28T14:52:13;6.60;;;3.45;;
66485;SDS011;53303;47.476;8.084;2023-02-28T15:02:38;6.18;;;3.30;;
66485;SDS011;53303;47.476;8.084;2023-02-28T15:07:41;6.57;;;3.20;;
66485;SDS011;53303;47.476;8.084;2023-02-28T15:10:18;5.70;;;3.20;;
66485;SDS011;53303;47.476;8.084;2023-02-28T15:15:21;6.75;;;3.40;;
66485;SDS011;53303;47.476;8.084;2023-02-28T15:18:00;6.70;;;3.17;;
66485;SDS011;53303;47.476;8.084;2023-02-28T15:20:30;6.90;;;3.22;;
66485;SDS011;53303;47.476;8.084;2023-02-28T15:22:57;6.90;;;3.63;;
66485;SDS011;53303;47.476;8.084;2023-02-28T15:25:23;5.90;;;2.90;;
66485;SDS011;53303;47.476;8.084;2023-02-28T15:27:51;5.60;;;3.30;;
66485;SDS011;53303;47.476;8.084;2023-02-28T15:30:24;6.05;;;3.20;;
66485;SDS011;53303;47.476;8.084;2023-02-28T15:35:36;5.80;;;3.28;;
66485;SDS011;53303;47.476;8.084;2023-02-28T15:38:03;5.72;;;3.50;;
66485;SDS011;53303;47.476;8.084;2023-02-28T15:40:58;5.70;;;3.33;;
66485;SDS011;53303;47.476;8.084;2023-02-28T15:43:27;7.20;;;3.45;;
66485;SDS011;53303;47.476;8.084;2023-02-28T15:45:58;6.65;;;3.80;;
66485;SDS011;53303;47.476;8.084;2023-02-28T15:53:51;6.60;;;3.58;;
66485;SDS011;53303;47.476;8.084;2023-02-28T15:56:26;7.60;;;3.85;;
66485;SDS011;53303;47.476;8.084;2023-02-28T15:58:56;6.57;;;3.25;;
66485;SDS011;53303;47.476;8.084;2023-02-28T16:01:28;6.10;;;3.47;;
66485;SDS011;53303;47.476;8.084;2023-02-28T16:04:04;6.70;;;3.58;;
66485;SDS011;53303;47.476;8.084;2023-02-28T16:06:41;6.53;;;3.65;;
66485;SDS011;53303;47.476;8.084;2023-02-28T16:11:42;6.28;;;3.53;;
66485;SDS011;53303;47.476;8.084;2023-02-28T16:14:19;9.00;;;3.50;;
66485;SDS011;53303;47.476;8.084;2023-02-28T16:16:50;6.13;;;3.33;;
66485;SDS011;53303;47.476;8.084;2023-02-28T16:19:18;6.82;;;3.60;;
66485;SDS011;53303;47.476;8.084;2023-02-28T16:21:44;6.40;;;3.28;;
66485;SDS011;53303;47.476;8.084;2023-02-28T16:24:13;8.40;;;3.65;;
66485;SDS011;53303;47.476;8.084;2023-02-28T16:26:39;10.80;;;3.95;;
66485;SDS011;53303;47.476;8.084;2023-02-28T16:29:05;7.25;;;3.50;;
66485;SDS011;53303;47.476;8.084;2023-02-28T16:31:33;8.80;;;3.63;;
66485;SDS011;53303;47.476;8.084;2023-02-28T16:34:01;8.50;;;3.80;;
66485;SDS011;53303;47.476;8.084;2023-02-28T16:36:27;8.55;;;3.67;;
66485;SDS011;53303;47.476;8.084;2023-02-28T16:38:54;7.85;;;3.78;;
66485;SDS011;53303;47.476;8.084;2023-02-28T16:41:20;10.43;;;4.18;;
66485;SDS011;53303;47.476;8.084;2023-02-28T16:43:50;8.55;;;3.75;;
66485;SDS011;53303;47.476;8.084;2023-02-28T16:46:17;8.63;;;3.85;;
66485;SDS011;53303;47.476;8.084;2023-02-28T16:48:44;7.68;;;3.88;;
66485;SDS011;53303;47.476;8.084;2023-02-28T16:51:16;12.38;;;3.92;;
66485;SDS011;53303;47.476;8.084;2023-02-28T16:56:15;10.63;;;3.70;;
66485;SDS011;53303;47.476;8.084;2023-02-28T16:58:43;9.57;;;3.85;;
66485;SDS011;53303;47.476;8.084;2023-02-28T17:01:08;7.85;;;3.92;;
66485;SDS011;53303;47.476;8.084;2023-02-28T17:03:34;7.88;;;3.55;;
66485;SDS011;53303;47.476;8.084;2023-02-28T17:06:01;8.32;;;4.15;;
66485;SDS011;53303;47.476;8.084;2023-02-28T17:08:26;10.57;;;3.80;;
66485;SDS011;53303;47.476;8.084;2023-02-28T17:10:54;9.45;;;4.28;;
66485;SDS011;53303;47.476;8.084;2023-02-28T17:13:19;9.90;;;3.97;;
66485;SDS011;53303;47.476;8.084;2023-02-28T17:15:47;7.20;;;3.50;;
66485;SDS011;53303;47.476;8.084;2023-02-28T17:18:13;7.45;;;3.60;;
66485;SDS011;53303;47.476;8.084;2023-02-28T17:20:41;9.50;;;4.32;;
66485;SDS011;53303;47.476;8.084;2023-02-28T17:23:07;6.75;;;3.67;;
66485;SDS011;53303;47.476;8.084;2023-02-28T17:25:33;7.25;;;3.75;;
66485;SDS011;53303;47.476;8.084;2023-02-28T17:27:58;10.43;;;3.80;;
66485;SDS011;53303;47.476;8.084;2023-02-28T17:30:25;7.03;;;4.00;;
66485;SDS011;53303;47.476;8.084;2023-02-28T17:32:55;8.98;;;3.50;;
66485;SDS011;53303;47.476;8.084;2023-02-28T17:35:21;7.97;;;3.63;;
66485;SDS011;53303;47.476;8.084;2023-02-28T17:37:47;7.97;;;3.72;;
66485;SDS011;53303;47.476;8.084;2023-02-28T17:40:18;10.02;;;3.65;;
66485;SDS011;53303;47.476;8.084;2023-02-28T17:42:45;8.30;;;4.10;;
66485;SDS011;53303;47.476;8.084;2023-02-28T17:45:11;7.43;;;3.70;;
66485;SDS011;53303;47.476;8.084;2023-02-28T17:47:38;6.25;;;3.67;;
66485;SDS011;53303;47.476;8.084;2023-02-28T17:50:04;6.68;;;4.30;;
66485;SDS011;53303;47.476;8.084;2023-02-28T17:52:30;7.18;;;3.78;;
66485;SDS011;53303;47.476;8.084;2023-02-28T17:54:56;27.33;;;5.53;;
66485;SDS011;53303;47.476;8.084;2023-02-28T17:57:21;16.35;;;4.97;;
66485;SDS011;53303;47.476;8.084;2023-02-28T17:59:49;31.48;;;6.68;;
66485;SDS011;53303;47.476;8.084;2023-02-28T18:02:16;30.50;;;6.75;;
66485;SDS011;53303;47.476;8.084;2023-02-28T18:04:44;47.83;;;8.65;;